Terminal Aerodrome Forecast
Issued by NWS

Home | Current Version | Previous Version | Text Only | Print | Product List | Glossary On
Versions: 1 2 3 4 5 6 7 8 9 10 11 12 13 14 15 16 17 18
000
FTUS44 KJAN 231740
TAFHKS
TAF
KHKS 231740Z 2318/2418 34005KT P6SM VCSH SCT015 BKN025
     FM231900 32006KT P6SM VCSH BKN040
     FM240700 30005KT P6SM -SHRA BKN015 OVC025
     FM241200 26004KT 4SM -RA BR OVC007
     FM241400 29006KT P6SM OVC015=

USA.gov is the U.S. government's official web portal to all federal, state and local government web resources and services.